sensor_id;sensor_type;location;lat;lon;timestamp;P1;durP1;ratioP1;P2;durP2;ratioP2
6412;SDS011;3239;48.714;9.472;2023-05-16T00:00:06;6.90;;;6.30;;
6412;SDS011;3239;48.714;9.472;2023-05-16T00:02:33;8.27;;;7.57;;
6412;SDS011;3239;48.714;9.472;2023-05-16T00:05:01;8.07;;;7.30;;
6412;SDS011;3239;48.714;9.472;2023-05-16T00:07:28;8.30;;;7.50;;
6412;SDS011;3239;48.714;9.472;2023-05-16T00:09:55;7.93;;;7.13;;
6412;SDS011;3239;48.714;9.472;2023-05-16T00:12:21;7.47;;;6.67;;
6412;SDS011;3239;48.714;9.472;2023-05-16T00:14:47;7.70;;;7.00;;
6412;SDS011;3239;48.714;9.472;2023-05-16T00:17:14;9.10;;;6.47;;
6412;SDS011;3239;48.714;9.472;2023-05-16T00:19:41;13.20;;;10.60;;
6412;SDS011;3239;48.714;9.472;2023-05-16T00:22:08;13.40;;;11.63;;
6412;SDS011;3239;48.714;9.472;2023-05-16T00:24:35;13.90;;;12.10;;
6412;SDS011;3239;48.714;9.472;2023-05-16T00:27:01;9.13;;;8.33;;
6412;SDS011;3239;48.714;9.472;2023-05-16T00:29:27;12.80;;;8.27;;
6412;SDS011;3239;48.714;9.472;2023-05-16T00:31:55;8.27;;;7.47;;
6412;SDS011;3239;48.714;9.472;2023-05-16T00:34:21;8.03;;;6.30;;
6412;SDS011;3239;48.714;9.472;2023-05-16T00:36:48;7.57;;;6.73;;
6412;SDS011;3239;48.714;9.472;2023-05-16T00:39:14;6.50;;;5.90;;
6412;SDS011;3239;48.714;9.472;2023-05-16T00:41:40;7.00;;;6.40;;
6412;SDS011;3239;48.714;9.472;2023-05-16T00:44:06;6.90;;;6.20;;
6412;SDS011;3239;48.714;9.472;2023-05-16T00:46:32;8.30;;;6.83;;
6412;SDS011;3239;48.714;9.472;2023-05-16T00:48:58;8.13;;;6.53;;
6412;SDS011;3239;48.714;9.472;2023-05-16T00:51:24;7.23;;;6.53;;
6412;SDS011;3239;48.714;9.472;2023-05-16T00:53:50;12.33;;;6.90;;
6412;SDS011;3239;48.714;9.472;2023-05-16T00:56:16;7.60;;;6.43;;
6412;SDS011;3239;48.714;9.472;2023-05-16T00:58:42;12.13;;;6.60;;
6412;SDS011;3239;48.714;9.472;2023-05-16T01:01:08;10.80;;;7.07;;
6412;SDS011;3239;48.714;9.472;2023-05-16T01:03:34;9.77;;;7.80;;
6412;SDS011;3239;48.714;9.472;2023-05-16T01:06:01;7.43;;;6.77;;
6412;SDS011;3239;48.714;9.472;2023-05-16T01:08:27;8.90;;;7.60;;
6412;SDS011;3239;48.714;9.472;2023-05-16T01:11:00;8.17;;;7.37;;
6412;SDS011;3239;48.714;9.472;2023-05-16T01:13:33;8.37;;;7.47;;
6412;SDS011;3239;48.714;9.472;2023-05-16T01:16:25;9.30;;;8.33;;
6412;SDS011;3239;48.714;9.472;2023-05-16T01:22:28;8.27;;;7.57;;
6412;SDS011;3239;48.714;9.472;2023-05-16T01:28:17;8.33;;;7.10;;
6412;SDS011;3239;48.714;9.472;2023-05-16T01:30:44;7.37;;;6.67;;
6412;SDS011;3239;48.714;9.472;2023-05-16T01:33:10;9.20;;;7.17;;
6412;SDS011;3239;48.714;9.472;2023-05-16T01:35:38;9.60;;;7.50;;
6412;SDS011;3239;48.714;9.472;2023-05-16T01:38:15;7.77;;;7.07;;
6412;SDS011;3239;48.714;9.472;2023-05-16T01:40:57;6.97;;;6.37;;
6412;SDS011;3239;48.714;9.472;2023-05-16T01:43:47;8.13;;;7.33;;
6412;SDS011;3239;48.714;9.472;2023-05-16T01:46:20;12.87;;;6.80;;
6412;SDS011;3239;48.714;9.472;2023-05-16T01:51:41;7.10;;;6.20;;
6412;SDS011;3239;48.714;9.472;2023-05-16T01:54:19;7.07;;;6.20;;
6412;SDS011;3239;48.714;9.472;2023-05-16T01:56:51;7.33;;;6.63;;
6412;SDS011;3239;48.714;9.472;2023-05-16T01:59:19;7.60;;;6.90;;
6412;SDS011;3239;48.714;9.472;2023-05-16T02:01:46;9.40;;;6.90;;
6412;SDS011;3239;48.714;9.472;2023-05-16T02:04:12;7.30;;;6.53;;
6412;SDS011;3239;48.714;9.472;2023-05-16T02:06:39;6.90;;;6.27;;
6412;SDS011;3239;48.714;9.472;2023-05-16T02:09:06;9.23;;;6.77;;
6412;SDS011;3239;48.714;9.472;2023-05-16T02:11:32;11.17;;;7.00;;
6412;SDS011;3239;48.714;9.472;2023-05-16T02:13:58;9.77;;;7.30;;
6412;SDS011;3239;48.714;9.472;2023-05-16T02:16:24;13.63;;;8.00;;
6412;SDS011;3239;48.714;9.472;2023-05-16T02:18:49;13.13;;;7.13;;
6412;SDS011;3239;48.714;9.472;2023-05-16T02:21:15;7.80;;;6.57;;
6412;SDS011;3239;48.714;9.472;2023-05-16T02:23:41;6.50;;;5.90;;
6412;SDS011;3239;48.714;9.472;2023-05-16T02:26:07;7.40;;;6.60;;
6412;SDS011;3239;48.714;9.472;2023-05-16T02:28:33;8.50;;;6.97;;
6412;SDS011;3239;48.714;9.472;2023-05-16T02:30:59;6.90;;;6.30;;
6412;SDS011;3239;48.714;9.472;2023-05-16T02:33:25;7.30;;;6.60;;
6412;SDS011;3239;48.714;9.472;2023-05-16T02:35:52;7.10;;;6.20;;
6412;SDS011;3239;48.714;9.472;2023-05-16T02:38:19;7.13;;;6.53;;
6412;SDS011;3239;48.714;9.472;2023-05-16T02:40:48;9.33;;;6.80;;
6412;SDS011;3239;48.714;9.472;2023-05-16T02:43:14;7.67;;;6.93;;
6412;SDS011;3239;48.714;9.472;2023-05-16T02:45:40;7.47;;;6.63;;
6412;SDS011;3239;48.714;9.472;2023-05-16T02:48:06;7.67;;;6.97;;
6412;SDS011;3239;48.714;9.472;2023-05-16T02:50:32;7.13;;;6.43;;
6412;SDS011;3239;48.714;9.472;2023-05-16T02:52:58;7.50;;;6.80;;
6412;SDS011;3239;48.714;9.472;2023-05-16T02:55:26;9.43;;;7.03;;
6412;SDS011;3239;48.714;9.472;2023-05-16T02:57:53;7.23;;;6.37;;
6412;SDS011;3239;48.714;9.472;2023-05-16T03:00:19;8.87;;;7.97;;
6412;SDS011;3239;48.714;9.472;2023-05-16T03:02:45;8.37;;;7.60;;
6412;SDS011;3239;48.714;9.472;2023-05-16T03:05:11;8.47;;;7.60;;
6412;SDS011;3239;48.714;9.472;2023-05-16T03:07:37;7.83;;;7.13;;
6412;SDS011;3239;48.714;9.472;2023-05-16T03:10:03;10.77;;;8.00;;
6412;SDS011;3239;48.714;9.472;2023-05-16T03:12:30;12.50;;;8.07;;
6412;SDS011;3239;48.714;9.472;2023-05-16T03:14:55;9.20;;;8.40;;
6412;SDS011;3239;48.714;9.472;2023-05-16T03:17:21;10.63;;;8.17;;
6412;SDS011;3239;48.714;9.472;2023-05-16T03:19:47;9.53;;;8.50;;
6412;SDS011;3239;48.714;9.472;2023-05-16T03:22:13;8.50;;;7.70;;
6412;SDS011;3239;48.714;9.472;2023-05-16T03:24:39;10.20;;;8.57;;
6412;SDS011;3239;48.714;9.472;2023-05-16T03:27:04;9.40;;;8.50;;
6412;SDS011;3239;48.714;9.472;2023-05-16T03:29:30;9.33;;;7.60;;
6412;SDS011;3239;48.714;9.472;2023-05-16T03:31:56;12.10;;;9.70;;
6412;SDS011;3239;48.714;9.472;2023-05-16T03:34:22;10.33;;;9.33;;
6412;SDS011;3239;48.714;9.472;2023-05-16T03:36:48;10.30;;;9.30;;
6412;SDS011;3239;48.714;9.472;2023-05-16T03:39:15;9.30;;;8.30;;
6412;SDS011;3239;48.714;9.472;2023-05-16T03:41:41;10.43;;;8.27;;
6412;SDS011;3239;48.714;9.472;2023-05-16T03:44:07;9.17;;;8.37;;
6412;SDS011;3239;48.714;9.472;2023-05-16T03:46:33;9.20;;;8.30;;
6412;SDS011;3239;48.714;9.472;2023-05-16T03:49:00;9.63;;;8.63;;
6412;SDS011;3239;48.714;9.472;2023-05-16T03:51:26;9.20;;;8.30;;
6412;SDS011;3239;48.714;9.472;2023-05-16T03:53:52;9.23;;;8.30;;
6412;SDS011;3239;48.714;9.472;2023-05-16T03:56:18;9.03;;;8.13;;
6412;SDS011;3239;48.714;9.472;2023-05-16T03:58:46;9.50;;;8.60;;
6412;SDS011;3239;48.714;9.472;2023-05-16T04:01:12;9.20;;;8.30;;
6412;SDS011;3239;48.714;9.472;2023-05-16T04:03:38;8.90;;;8.10;;
6412;SDS011;3239;48.714;9.472;2023-05-16T04:06:05;10.57;;;8.70;;
6412;SDS011;3239;48.714;9.472;2023-05-16T04:08:32;10.07;;;9.13;;
6412;SDS011;3239;48.714;9.472;2023-05-16T04:10:58;13.07;;;10.73;;
6412;SDS011;3239;48.714;9.472;2023-05-16T04:13:23;14.30;;;10.90;;
6412;SDS011;3239;48.714;9.472;2023-05-16T04:15:49;18.00;;;11.40;;
6412;SDS011;3239;48.714;9.472;2023-05-16T04:18:15;13.43;;;11.13;;
6412;SDS011;3239;48.714;9.472;2023-05-16T04:20:41;11.83;;;10.67;;
6412;SDS011;3239;48.714;9.472;2023-05-16T04:23:08;10.97;;;9.90;;
6412;SDS011;3239;48.714;9.472;2023-05-16T04:25:35;10.47;;;9.43;;
6412;SDS011;3239;48.714;9.472;2023-05-16T04:28:01;10.90;;;9.90;;
6412;SDS011;3239;48.714;9.472;2023-05-16T04:30:28;13.73;;;10.40;;
6412;SDS011;3239;48.714;9.472;2023-05-16T04:32:54;9.80;;;8.80;;
6412;SDS011;3239;48.714;9.472;2023-05-16T04:35:23;9.13;;;8.20;;
6412;SDS011;3239;48.714;9.472;2023-05-16T04:37:50;10.47;;;8.20;;
6412;SDS011;3239;48.714;9.472;2023-05-16T04:40:16;8.30;;;7.40;;
6412;SDS011;3239;48.714;9.472;2023-05-16T04:42:41;11.27;;;8.50;;
6412;SDS011;3239;48.714;9.472;2023-05-16T04:45:07;9.17;;;8.23;;
6412;SDS011;3239;48.714;9.472;2023-05-16T04:47:38;13.43;;;8.27;;
6412;SDS011;3239;48.714;9.472;2023-05-16T04:50:04;9.73;;;8.80;;
6412;SDS011;3239;48.714;9.472;2023-05-16T04:52:33;10.23;;;9.00;;
6412;SDS011;3239;48.714;9.472;2023-05-16T04:54:58;9.70;;;8.80;;
6412;SDS011;3239;48.714;9.472;2023-05-16T04:57:25;14.67;;;11.17;;
6412;SDS011;3239;48.714;9.472;2023-05-16T04:59:51;13.17;;;11.03;;
6412;SDS011;3239;48.714;9.472;2023-05-16T05:02:17;12.77;;;10.37;;
6412;SDS011;3239;48.714;9.472;2023-05-16T05:04:43;15.30;;;10.10;;
6412;SDS011;3239;48.714;9.472;2023-05-16T05:07:08;13.07;;;10.77;;
6412;SDS011;3239;48.714;9.472;2023-05-16T05:09:34;11.53;;;10.33;;
6412;SDS011;3239;48.714;9.472;2023-05-16T05:12:00;11.40;;;10.20;;
6412;SDS011;3239;48.714;9.472;2023-05-16T05:14:26;11.47;;;10.27;;
6412;SDS011;3239;48.714;9.472;2023-05-16T05:16:51;14.67;;;10.43;;
6412;SDS011;3239;48.714;9.472;2023-05-16T05:19:17;11.97;;;9.70;;
6412;SDS011;3239;48.714;9.472;2023-05-16T05:21:43;12.63;;;10.87;;
6412;SDS011;3239;48.714;9.472;2023-05-16T05:24:08;15.90;;;9.90;;
6412;SDS011;3239;48.714;9.472;2023-05-16T05:26:34;16.70;;;10.87;;
6412;SDS011;3239;48.714;9.472;2023-05-16T05:29:00;18.83;;;12.13;;
6412;SDS011;3239;48.714;9.472;2023-05-16T05:31:25;13.33;;;11.40;;
6412;SDS011;3239;48.714;9.472;2023-05-16T05:33:51;14.20;;;10.83;;
6412;SDS011;3239;48.714;9.472;2023-05-16T05:36:17;13.10;;;10.67;;
6412;SDS011;3239;48.714;9.472;2023-05-16T05:38:43;14.20;;;10.83;;
6412;SDS011;3239;48.714;9.472;2023-05-16T05:41:08;14.30;;;12.27;;
6412;SDS011;3239;48.714;9.472;2023-05-16T05:43:35;13.57;;;11.67;;
6412;SDS011;3239;48.714;9.472;2023-05-16T05:46:01;15.07;;;11.43;;
6412;SDS011;3239;48.714;9.472;2023-05-16T05:48:27;15.97;;;11.90;;
6412;SDS011;3239;48.714;9.472;2023-05-16T05:50:54;21.50;;;12.10;;
6412;SDS011;3239;48.714;9.472;2023-05-16T05:53:20;15.80;;;12.70;;
6412;SDS011;3239;48.714;9.472;2023-05-16T05:55:46;16.00;;;12.27;;
6412;SDS011;3239;48.714;9.472;2023-05-16T05:58:12;17.03;;;12.67;;
6412;SDS011;3239;48.714;9.472;2023-05-16T06:00:37;17.90;;;13.20;;
6412;SDS011;3239;48.714;9.472;2023-05-16T06:03:03;16.07;;;10.60;;
6412;SDS011;3239;48.714;9.472;2023-05-16T06:05:29;17.73;;;12.03;;
6412;SDS011;3239;48.714;9.472;2023-05-16T06:07:55;22.93;;;13.70;;
6412;SDS011;3239;48.714;9.472;2023-05-16T06:10:21;13.70;;;12.20;;
6412;SDS011;3239;48.714;9.472;2023-05-16T06:12:47;17.63;;;14.37;;
6412;SDS011;3239;48.714;9.472;2023-05-16T06:15:12;26.63;;;15.10;;
6412;SDS011;3239;48.714;9.472;2023-05-16T06:17:38;25.67;;;16.87;;
6412;SDS011;3239;48.714;9.472;2023-05-16T06:20:04;23.63;;;18.27;;
6412;SDS011;3239;48.714;9.472;2023-05-16T06:22:31;31.57;;;21.77;;
6412;SDS011;3239;48.714;9.472;2023-05-16T06:24:56;32.93;;;23.33;;
6412;SDS011;3239;48.714;9.472;2023-05-16T06:27:22;39.97;;;24.63;;
6412;SDS011;3239;48.714;9.472;2023-05-16T06:29:48;37.20;;;24.47;;
6412;SDS011;3239;48.714;9.472;2023-05-16T06:32:13;37.50;;;25.27;;
6412;SDS011;3239;48.714;9.472;2023-05-16T06:34:39;39.63;;;25.60;;
6412;SDS011;3239;48.714;9.472;2023-05-16T06:37:05;32.30;;;24.00;;
6412;SDS011;3239;48.714;9.472;2023-05-16T06:39:30;35.73;;;23.97;;
6412;SDS011;3239;48.714;9.472;2023-05-16T06:41:56;38.33;;;26.97;;
6412;SDS011;3239;48.714;9.472;2023-05-16T06:44:22;34.83;;;26.40;;
6412;SDS011;3239;48.714;9.472;2023-05-16T06:46:48;33.03;;;24.80;;
6412;SDS011;3239;48.714;9.472;2023-05-16T06:49:14;36.00;;;26.00;;
6412;SDS011;3239;48.714;9.472;2023-05-16T06:51:39;32.57;;;23.53;;
6412;SDS011;3239;48.714;9.472;2023-05-16T06:54:05;33.07;;;24.33;;
6412;SDS011;3239;48.714;9.472;2023-05-16T06:56:31;33.80;;;23.10;;
6412;SDS011;3239;48.714;9.472;2023-05-16T06:58:57;28.27;;;22.67;;
6412;SDS011;3239;48.714;9.472;2023-05-16T07:01:25;32.93;;;23.50;;
6412;SDS011;3239;48.714;9.472;2023-05-16T07:03:51;28.43;;;21.10;;
6412;SDS011;3239;48.714;9.472;2023-05-16T07:06:17;26.47;;;21.63;;
6412;SDS011;3239;48.714;9.472;2023-05-16T07:08:42;28.33;;;22.57;;
6412;SDS011;3239;48.714;9.472;2023-05-16T07:11:08;30.03;;;22.07;;
6412;SDS011;3239;48.714;9.472;2023-05-16T07:13:35;26.00;;;20.30;;
6412;SDS011;3239;48.714;9.472;2023-05-16T07:16:01;24.83;;;19.83;;
6412;SDS011;3239;48.714;9.472;2023-05-16T07:18:27;22.03;;;18.20;;
6412;SDS011;3239;48.714;9.472;2023-05-16T07:20:53;24.93;;;18.70;;
6412;SDS011;3239;48.714;9.472;2023-05-16T07:23:19;23.87;;;18.27;;
6412;SDS011;3239;48.714;9.472;2023-05-16T07:25:44;21.70;;;17.67;;
6412;SDS011;3239;48.714;9.472;2023-05-16T07:28:10;19.93;;;16.73;;
6412;SDS011;3239;48.714;9.472;2023-05-16T07:30:36;19.23;;;16.00;;
6412;SDS011;3239;48.714;9.472;2023-05-16T07:33:02;15.80;;;14.13;;
6412;SDS011;3239;48.714;9.472;2023-05-16T07:35:27;20.30;;;14.60;;
6412;SDS011;3239;48.714;9.472;2023-05-16T07:37:53;17.40;;;13.93;;
6412;SDS011;3239;48.714;9.472;2023-05-16T07:40:19;15.87;;;12.47;;
6412;SDS011;3239;48.714;9.472;2023-05-16T07:42:49;14.23;;;12.37;;
6412;SDS011;3239;48.714;9.472;2023-05-16T07:45:15;17.70;;;13.97;;
6412;SDS011;3239;48.714;9.472;2023-05-16T07:47:41;17.13;;;14.00;;
6412;SDS011;3239;48.714;9.472;2023-05-16T07:50:07;16.30;;;14.50;;
6412;SDS011;3239;48.714;9.472;2023-05-16T07:52:34;18.13;;;14.07;;
6412;SDS011;3239;48.714;9.472;2023-05-16T07:55:00;19.00;;;13.40;;
6412;SDS011;3239;48.714;9.472;2023-05-16T07:57:26;18.10;;;14.10;;
6412;SDS011;3239;48.714;9.472;2023-05-16T07:59:52;19.30;;;13.80;;
6412;SDS011;3239;48.714;9.472;2023-05-16T08:02:18;16.43;;;12.80;;
6412;SDS011;3239;48.714;9.472;2023-05-16T08:04:44;19.50;;;14.33;;
6412;SDS011;3239;48.714;9.472;2023-05-16T08:07:10;14.00;;;12.57;;
6412;SDS011;3239;48.714;9.472;2023-05-16T08:09:36;15.50;;;13.70;;
6412;SDS011;3239;48.714;9.472;2023-05-16T08:12:01;18.97;;;13.53;;
6412;SDS011;3239;48.714;9.472;2023-05-16T08:14:31;15.07;;;11.53;;
6412;SDS011;3239;48.714;9.472;2023-05-16T08:16:59;16.07;;;12.00;;
6412;SDS011;3239;48.714;9.472;2023-05-16T08:19:25;16.83;;;11.13;;
6412;SDS011;3239;48.714;9.472;2023-05-16T08:21:51;12.90;;;10.87;;
6412;SDS011;3239;48.714;9.472;2023-05-16T08:24:17;12.10;;;10.80;;
6412;SDS011;3239;48.714;9.472;2023-05-16T08:26:43;13.67;;;11.40;;
6412;SDS011;3239;48.714;9.472;2023-05-16T08:29:09;11.47;;;10.37;;
6412;SDS011;3239;48.714;9.472;2023-05-16T08:31:35;20.83;;;11.27;;
6412;SDS011;3239;48.714;9.472;2023-05-16T08:34:00;11.93;;;10.57;;
6412;SDS011;3239;48.714;9.472;2023-05-16T08:36:26;15.00;;;9.10;;
6412;SDS011;3239;48.714;9.472;2023-05-16T08:38:53;10.67;;;9.57;;
6412;SDS011;3239;48.714;9.472;2023-05-16T08:41:19;15.27;;;10.77;;
6412;SDS011;3239;48.714;9.472;2023-05-16T08:43:46;13.07;;;10.60;;
6412;SDS011;3239;48.714;9.472;2023-05-16T08:46:11;11.80;;;10.40;;
6412;SDS011;3239;48.714;9.472;2023-05-16T08:48:37;11.60;;;10.40;;
6412;SDS011;3239;48.714;9.472;2023-05-16T08:51:07;12.63;;;11.33;;
6412;SDS011;3239;48.714;9.472;2023-05-16T08:53:44;12.80;;;10.93;;
6412;SDS011;3239;48.714;9.472;2023-05-16T08:56:16;12.73;;;9.77;;
6412;SDS011;3239;48.714;9.472;2023-05-16T08:58:43;12.60;;;10.83;;
6412;SDS011;3239;48.714;9.472;2023-05-16T09:01:09;12.70;;;10.93;;
6412;SDS011;3239;48.714;9.472;2023-05-16T09:03:36;13.50;;;11.13;;
6412;SDS011;3239;48.714;9.472;2023-05-16T09:06:05;14.13;;;11.10;;
6412;SDS011;3239;48.714;9.472;2023-05-16T09:08:31;14.67;;;11.47;;
6412;SDS011;3239;48.714;9.472;2023-05-16T09:10:58;13.00;;;11.50;;
6412;SDS011;3239;48.714;9.472;2023-05-16T09:13:25;14.47;;;10.87;;
6412;SDS011;3239;48.714;9.472;2023-05-16T09:18:36;12.27;;;11.07;;
6412;SDS011;3239;48.714;9.472;2023-05-16T09:21:07;12.20;;;10.77;;
6412;SDS011;3239;48.714;9.472;2023-05-16T09:23:36;12.37;;;10.97;;
6412;SDS011;3239;48.714;9.472;2023-05-16T09:26:03;12.97;;;11.30;;
6412;SDS011;3239;48.714;9.472;2023-05-16T09:28:31;14.77;;;12.13;;
6412;SDS011;3239;48.714;9.472;2023-05-16T09:30:58;16.37;;;12.27;;
6412;SDS011;3239;48.714;9.472;2023-05-16T09:33:26;12.90;;;11.60;;
6412;SDS011;3239;48.714;9.472;2023-05-16T09:35:59;14.60;;;11.87;;
6412;SDS011;3239;48.714;9.472;2023-05-16T09:38:27;13.90;;;12.13;;
6412;SDS011;3239;48.714;9.472;2023-05-16T09:40:53;14.60;;;12.90;;
6412;SDS011;3239;48.714;9.472;2023-05-16T09:43:24;14.00;;;12.07;;
6412;SDS011;3239;48.714;9.472;2023-05-16T09:45:51;17.60;;;12.93;;
6412;SDS011;3239;48.714;9.472;2023-05-16T09:48:17;17.17;;;13.07;;
6412;SDS011;3239;48.714;9.472;2023-05-16T09:50:49;16.73;;;14.00;;
6412;SDS011;3239;48.714;9.472;2023-05-16T09:53:17;14.23;;;11.87;;
6412;SDS011;3239;48.714;9.472;2023-05-16T09:56:03;14.50;;;12.53;;
6412;SDS011;3239;48.714;9.472;2023-05-16T09:58:33;16.60;;;12.07;;
6412;SDS011;3239;48.714;9.472;2023-05-16T10:01:01;13.13;;;10.63;;
6412;SDS011;3239;48.714;9.472;2023-05-16T10:03:27;14.47;;;11.50;;
6412;SDS011;3239;48.714;9.472;2023-05-16T10:05:54;13.77;;;12.17;;
6412;SDS011;3239;48.714;9.472;2023-05-16T10:08:24;17.60;;;12.50;;
6412;SDS011;3239;48.714;9.472;2023-05-16T10:10:51;12.63;;;11.40;;
6412;SDS011;3239;48.714;9.472;2023-05-16T10:13:21;15.20;;;12.30;;
6412;SDS011;3239;48.714;9.472;2023-05-16T10:15:52;13.03;;;11.00;;
6412;SDS011;3239;48.714;9.472;2023-05-16T10:18:21;13.20;;;10.67;;
6412;SDS011;3239;48.714;9.472;2023-05-16T10:20:56;11.90;;;9.20;;
6412;SDS011;3239;48.714;9.472;2023-05-16T10:23:32;11.00;;;9.00;;
6412;SDS011;3239;48.714;9.472;2023-05-16T10:25:59;8.77;;;7.97;;
6412;SDS011;3239;48.714;9.472;2023-05-16T10:28:28;9.60;;;8.47;;
6412;SDS011;3239;48.714;9.472;2023-05-16T10:30:55;12.67;;;10.13;;
6412;SDS011;3239;48.714;9.472;2023-05-16T10:33:21;10.27;;;9.27;;
6412;SDS011;3239;48.714;9.472;2023-05-16T10:35:47;12.37;;;10.20;;
6412;SDS011;3239;48.714;9.472;2023-05-16T10:38:16;12.00;;;10.40;;
6412;SDS011;3239;48.714;9.472;2023-05-16T10:40:43;11.57;;;9.53;;
6412;SDS011;3239;48.714;9.472;2023-05-16T10:43:13;14.50;;;10.50;;
6412;SDS011;3239;48.714;9.472;2023-05-16T10:46:04;12.73;;;10.40;;
6412;SDS011;3239;48.714;9.472;2023-05-16T10:48:36;17.43;;;9.47;;
6412;SDS011;3239;48.714;9.472;2023-05-16T10:54:05;13.80;;;10.70;;
6412;SDS011;3239;48.714;9.472;2023-05-16T10:56:34;13.20;;;10.20;;
6412;SDS011;3239;48.714;9.472;2023-05-16T10:59:01;14.77;;;11.17;;
6412;SDS011;3239;48.714;9.472;2023-05-16T11:01:32;11.50;;;10.10;;
6412;SDS011;3239;48.714;9.472;2023-05-16T11:04:09;13.20;;;10.47;;
6412;SDS011;3239;48.714;9.472;2023-05-16T11:11:52;13.67;;;11.13;;
6412;SDS011;3239;48.714;9.472;2023-05-16T11:14:22;10.40;;;9.30;;
6412;SDS011;3239;48.714;9.472;2023-05-16T11:17:00;15.37;;;10.70;;
6412;SDS011;3239;48.714;9.472;2023-05-16T11:19:51;17.10;;;12.10;;
6412;SDS011;3239;48.714;9.472;2023-05-16T11:22:32;11.20;;;10.03;;
6412;SDS011;3239;48.714;9.472;2023-05-16T11:25:07;11.93;;;10.67;;
6412;SDS011;3239;48.714;9.472;2023-05-16T11:30:12;12.87;;;10.80;;
6412;SDS011;3239;48.714;9.472;2023-05-16T11:32:42;18.73;;;11.50;;
6412;SDS011;3239;48.714;9.472;2023-05-16T11:35:10;12.57;;;10.70;;
6412;SDS011;3239;48.714;9.472;2023-05-16T11:37:39;16.30;;;11.57;;
6412;SDS011;3239;48.714;9.472;2023-05-16T11:40:06;16.63;;;11.13;;
6412;SDS011;3239;48.714;9.472;2023-05-16T11:42:39;15.83;;;11.80;;
6412;SDS011;3239;48.714;9.472;2023-05-16T11:45:09;13.13;;;11.33;;
6412;SDS011;3239;48.714;9.472;2023-05-16T11:47:44;17.43;;;11.10;;
6412;SDS011;3239;48.714;9.472;2023-05-16T11:50:18;14.20;;;10.70;;
6412;SDS011;3239;48.714;9.472;2023-05-16T11:52:46;13.13;;;11.50;;
6412;SDS011;3239;48.714;9.472;2023-05-16T11:55:18;14.10;;;12.10;;
6412;SDS011;3239;48.714;9.472;2023-05-16T11:57:47;12.10;;;10.90;;
6412;SDS011;3239;48.714;9.472;2023-05-16T12:00:16;15.50;;;12.20;;
6412;SDS011;3239;48.714;9.472;2023-05-16T12:02:45;15.70;;;11.77;;
6412;SDS011;3239;48.714;9.472;2023-05-16T12:05:12;20.07;;;11.50;;
6412;SDS011;3239;48.714;9.472;2023-05-16T12:07:39;16.50;;;10.23;;
6412;SDS011;3239;48.714;9.472;2023-05-16T12:10:07;14.47;;;11.27;;
6412;SDS011;3239;48.714;9.472;2023-05-16T12:12:36;14.90;;;11.60;;
6412;SDS011;3239;48.714;9.472;2023-05-16T12:15:05;14.27;;;11.60;;
6412;SDS011;3239;48.714;9.472;2023-05-16T12:17:33;14.20;;;10.50;;
6412;SDS011;3239;48.714;9.472;2023-05-16T12:20:01;14.90;;;11.20;;
6412;SDS011;3239;48.714;9.472;2023-05-16T12:22:35;15.30;;;12.00;;
6412;SDS011;3239;48.714;9.472;2023-05-16T12:25:24;16.50;;;10.80;;
6412;SDS011;3239;48.714;9.472;2023-05-16T12:27:57;17.97;;;10.77;;
6412;SDS011;3239;48.714;9.472;2023-05-16T12:30:26;13.43;;;10.73;;
6412;SDS011;3239;48.714;9.472;2023-05-16T12:33:03;11.80;;;10.00;;
6412;SDS011;3239;48.714;9.472;2023-05-16T12:35:37;12.00;;;10.07;;
6412;SDS011;3239;48.714;9.472;2023-05-16T12:38:12;10.70;;;9.60;;
6412;SDS011;3239;48.714;9.472;2023-05-16T12:40:40;10.70;;;9.50;;
6412;SDS011;3239;48.714;9.472;2023-05-16T12:43:14;12.27;;;10.43;;
6412;SDS011;3239;48.714;9.472;2023-05-16T12:45:48;13.90;;;11.13;;
6412;SDS011;3239;48.714;9.472;2023-05-16T12:48:19;11.10;;;9.90;;
6412;SDS011;3239;48.714;9.472;2023-05-16T12:50:45;12.17;;;9.97;;
6412;SDS011;3239;48.714;9.472;2023-05-16T12:53:12;15.37;;;10.57;;
6412;SDS011;3239;48.714;9.472;2023-05-16T12:55:40;13.00;;;10.63;;
6412;SDS011;3239;48.714;9.472;2023-05-16T12:58:07;10.43;;;9.30;;
6412;SDS011;3239;48.714;9.472;2023-05-16T13:00:35;9.60;;;8.70;;
6412;SDS011;3239;48.714;9.472;2023-05-16T13:03:03;11.23;;;9.87;;
6412;SDS011;3239;48.714;9.472;2023-05-16T13:05:30;10.37;;;9.27;;
6412;SDS011;3239;48.714;9.472;2023-05-16T13:07:56;13.93;;;9.53;;
6412;SDS011;3239;48.714;9.472;2023-05-16T13:10:21;11.00;;;9.33;;
6412;SDS011;3239;48.714;9.472;2023-05-16T13:12:49;11.03;;;10.03;;
6412;SDS011;3239;48.714;9.472;2023-05-16T13:15:15;10.73;;;9.70;;
6412;SDS011;3239;48.714;9.472;2023-05-16T13:17:41;11.10;;;8.63;;
6412;SDS011;3239;48.714;9.472;2023-05-16T13:20:11;10.93;;;9.20;;
6412;SDS011;3239;48.714;9.472;2023-05-16T13:22:38;10.07;;;8.63;;
6412;SDS011;3239;48.714;9.472;2023-05-16T13:25:05;9.13;;;8.23;;
6412;SDS011;3239;48.714;9.472;2023-05-16T13:27:32;9.27;;;8.33;;
6412;SDS011;3239;48.714;9.472;2023-05-16T13:29:58;10.03;;;8.33;;
6412;SDS011;3239;48.714;9.472;2023-05-16T13:32:24;7.40;;;6.70;;
6412;SDS011;3239;48.714;9.472;2023-05-16T13:34:50;6.53;;;5.93;;
6412;SDS011;3239;48.714;9.472;2023-05-16T13:37:17;7.13;;;6.43;;
6412;SDS011;3239;48.714;9.472;2023-05-16T13:39:43;7.40;;;6.57;;
6412;SDS011;3239;48.714;9.472;2023-05-16T13:42:09;7.47;;;6.77;;
6412;SDS011;3239;48.714;9.472;2023-05-16T13:44:35;7.70;;;6.20;;
6412;SDS011;3239;48.714;9.472;2023-05-16T13:47:01;5.67;;;5.17;;
6412;SDS011;3239;48.714;9.472;2023-05-16T13:49:27;6.63;;;5.90;;
6412;SDS011;3239;48.714;9.472;2023-05-16T13:51:53;5.93;;;5.40;;
6412;SDS011;3239;48.714;9.472;2023-05-16T13:54:19;4.50;;;4.10;;
6412;SDS011;3239;48.714;9.472;2023-05-16T13:56:46;4.50;;;4.10;;
6412;SDS011;3239;48.714;9.472;2023-05-16T13:59:12;6.83;;;4.10;;
6412;SDS011;3239;48.714;9.472;2023-05-16T14:01:38;4.70;;;4.03;;
6412;SDS011;3239;48.714;9.472;2023-05-16T14:04:04;4.90;;;4.47;;
6412;SDS011;3239;48.714;9.472;2023-05-16T14:06:30;6.70;;;3.83;;
6412;SDS011;3239;48.714;9.472;2023-05-16T14:08:57;3.73;;;3.27;;
6412;SDS011;3239;48.714;9.472;2023-05-16T14:11:24;3.83;;;3.40;;
6412;SDS011;3239;48.714;9.472;2023-05-16T14:13:52;5.53;;;3.33;;
6412;SDS011;3239;48.714;9.472;2023-05-16T14:16:18;3.30;;;2.90;;
6412;SDS011;3239;48.714;9.472;2023-05-16T14:18:44;4.00;;;3.70;;
6412;SDS011;3239;48.714;9.472;2023-05-16T14:21:10;3.90;;;3.60;;
6412;SDS011;3239;48.714;9.472;2023-05-16T14:23:36;3.40;;;3.07;;
6412;SDS011;3239;48.714;9.472;2023-05-16T14:26:03;3.43;;;3.07;;
6412;SDS011;3239;48.714;9.472;2023-05-16T14:28:29;2.90;;;2.50;;
6412;SDS011;3239;48.714;9.472;2023-05-16T14:30:56;3.60;;;2.40;;
6412;SDS011;3239;48.714;9.472;2023-05-16T14:33:23;2.70;;;2.50;;
6412;SDS011;3239;48.714;9.472;2023-05-16T14:35:50;3.17;;;2.50;;
6412;SDS011;3239;48.714;9.472;2023-05-16T14:38:17;2.63;;;2.43;;
6412;SDS011;3239;48.714;9.472;2023-05-16T14:40:43;3.63;;;2.73;;
6412;SDS011;3239;48.714;9.472;2023-05-16T14:43:09;3.83;;;2.97;;
6412;SDS011;3239;48.714;9.472;2023-05-16T14:45:36;8.27;;;2.97;;
6412;SDS011;3239;48.714;9.472;2023-05-16T14:48:03;3.60;;;3.00;;
6412;SDS011;3239;48.714;9.472;2023-05-16T14:50:32;3.10;;;2.80;;
6412;SDS011;3239;48.714;9.472;2023-05-16T14:52:59;2.93;;;2.73;;
6412;SDS011;3239;48.714;9.472;2023-05-16T14:55:25;3.03;;;2.83;;
6412;SDS011;3239;48.714;9.472;2023-05-16T14:57:51;3.17;;;2.87;;
6412;SDS011;3239;48.714;9.472;2023-05-16T15:00:20;3.80;;;3.20;;
6412;SDS011;3239;48.714;9.472;2023-05-16T15:02:48;6.07;;;2.60;;
6412;SDS011;3239;48.714;9.472;2023-05-16T15:05:14;3.33;;;3.03;;
6412;SDS011;3239;48.714;9.472;2023-05-16T15:07:40;2.93;;;2.73;;
6412;SDS011;3239;48.714;9.472;2023-05-16T15:10:07;2.63;;;2.40;;
6412;SDS011;3239;48.714;9.472;2023-05-16T15:12:34;3.83;;;2.70;;
6412;SDS011;3239;48.714;9.472;2023-05-16T15:15:00;3.13;;;2.60;;
6412;SDS011;3239;48.714;9.472;2023-05-16T15:17:26;2.67;;;2.47;;
6412;SDS011;3239;48.714;9.472;2023-05-16T15:19:52;3.20;;;2.50;;
6412;SDS011;3239;48.714;9.472;2023-05-16T15:22:18;3.20;;;2.40;;
6412;SDS011;3239;48.714;9.472;2023-05-16T15:24:44;4.03;;;2.90;;